Nea Ionia, Greece
Current Conditions -  °F | °C
As of 7:20 AM on Sunday 26 Oct 2014 (Local Time) from LGEL Reporting Station
Broken Clouds Broken Clouds  
Wind Chill: 57°   Ceiling: 7000
Heat Index: 57°   Visibility: 6mi
Dew Point: 48°   Wind: 14mph
Humidity: 72%   Direction: 340°NNW
Pressure: 29.97"   Gusts: NA
Location:  38.03°N, 23.75°E
Report Text: LGEL 260420Z 34012KT 9999 FEW025 BKN070 14/09 Q1015
Loading
Personal Weather Stations






























Interactive Weather Map
Tropical Storm Tracking
New forecast layout! Learn more

10-Day Weather Forecast

Advertisements
Track Severe Weather on mobile